Burwash Airport
CYDB : rendu visible

Aérodrome :











RETROUVEZ-NOUS SUR...

 
LOGIN :

S'inscrire | Disclaimer

   EN    FR    IT 

 









Légende :    VFR   VFR Marginal   IFR   IFR Intensif   IFR Très Intensif
Visi : 
Plafond : 
>= 8 km
>= 3000ft
5 à 8 km
1000 à 3000 ft
1500m à 5 km
500 à 1000 ft
800 à 1500m
200 à 500 ft
< 800m
< 200 ft
Symboles :   Orages  Brouillard  Fortes neiges  Fortes précipitations  Vent > 20 kt






- Altitude de l'aérodrome : 2647 ft
- Code IATA : YDB


CYDB - Burwash

DERNIER METAR :
  • 250635Z AUTO 28005KT 9SM RA OVC030 05/04 A2964 RMK SLP064

METARs EXPIRÉS :
  • 250600Z AUTO 28007KT 9SM RA OVC036 06/05 A2963 RMK PCPN 1.0MM PAST HR SLP059
  • 250500Z AUTO 31009KT 9SM -RA OVC055 08/05 A2961 RMK SLP052 DENSITY ALT 2700FT
  • 250441Z AUTO 30010KT 9SM -RA OVC055 08/05 A2959 RMK SLP047 DENSITY ALT 2800FT
  • 250400Z AUTO 31012G18KT 9SM SCT070 OVC110 09/05 A2957 RMK SLP040 DENSITY ALT 2900FT

TAF TAF CYDB
Valide du 25 à 06h jusqu'au 25 à 18h UTC


250543Z 2506/2518 31012G22KT P6SM -RA BKN050
FM250800 13008KT P6SM -RA SCT020 OVC050
TEMPO 2508/2518 3SM -RA BR BKN020 OVC040 RMK FCST BASED ON AUTO OBS. NXT FCST BY 251200Z
FIR CZEG / Amérique du Nord



MET'MAP, la Météo Aéronautique d'un coup d'oeil ! - Copyright ORBIFLY Décembre 2007 - Disclaimer

ORBIFLY MET'MAP TEAM :

Programmation & Développement : Alexandra Zaïnal
Sur une idée originale de : Baudouin d'Aumeries
Assistance à la programmation : Marc-Olivier Méhu
Soutien technique & logistique : Manuel Goepfert

Contact : metmap@orbifly.com




SOURCES & CREDITS :

   NOAA       Earth
Advisory